sensor_id;sensor_type;location;lat;lon;timestamp;pressure;altitude;pressure_sealevel;temperature;humidity
65384;BME280;51986;52.788;41.368;2023-07-24T00:01:07;98744.91;;;16.96;67.09
65384;BME280;51986;52.788;41.368;2023-07-24T00:03:35;98787.06;;;17.07;66.74
65384;BME280;51986;52.788;41.368;2023-07-24T00:06:02;98777.47;;;17.00;67.62
65384;BME280;51986;52.788;41.368;2023-07-24T00:08:29;98767.13;;;16.93;67.40
65384;BME280;51986;52.788;41.368;2023-07-24T00:10:56;98771.72;;;16.92;67.29
65384;BME280;51986;52.788;41.368;2023-07-24T00:13:23;98760.19;;;16.86;67.46
65384;BME280;51986;52.788;41.368;2023-07-24T00:15:51;98781.34;;;16.81;67.25
65384;BME280;51986;52.788;41.368;2023-07-24T00:18:18;98770.56;;;16.66;67.49
65384;BME280;51986;52.788;41.368;2023-07-24T00:20:45;98755.94;;;16.61;68.10
65384;BME280;51986;52.788;41.368;2023-07-24T00:23:12;98750.59;;;16.43;68.21
65384;BME280;51986;52.788;41.368;2023-07-24T00:25:39;98742.91;;;16.45;68.74
65384;BME280;51986;52.788;41.368;2023-07-24T00:28:06;98756.81;;;16.49;68.48
65384;BME280;51986;52.788;41.368;2023-07-24T00:30:33;98741.16;;;16.42;69.36
65384;BME280;51986;52.788;41.368;2023-07-24T00:33:00;98733.59;;;16.40;69.27
65384;BME280;51986;52.788;41.368;2023-07-24T00:35:28;98723.69;;;16.23;69.30
65384;BME280;51986;52.788;41.368;2023-07-24T00:37:55;98734.63;;;16.34;69.40
65384;BME280;51986;52.788;41.368;2023-07-24T00:40:25;98748.09;;;16.30;69.81
65384;BME280;51986;52.788;41.368;2023-07-24T00:42:52;98747.03;;;16.37;69.63
65384;BME280;51986;52.788;41.368;2023-07-24T00:45:19;98758.00;;;16.30;70.12
65384;BME280;51986;52.788;41.368;2023-07-24T00:47:48;98748.22;;;16.27;70.46
65384;BME280;51986;52.788;41.368;2023-07-24T00:50:15;98730.50;;;16.24;70.01
65384;BME280;51986;52.788;41.368;2023-07-24T00:52:43;98747.50;;;16.26;70.35
65384;BME280;51986;52.788;41.368;2023-07-24T00:55:13;98751.16;;;16.19;70.44
65384;BME280;51986;52.788;41.368;2023-07-24T00:57:40;98724.25;;;16.17;70.57
65384;BME280;51986;52.788;41.368;2023-07-24T01:00:08;98733.13;;;16.14;71.09
65384;BME280;51986;52.788;41.368;2023-07-24T01:02:36;98766.38;;;16.19;71.68
65384;BME280;51986;52.788;41.368;2023-07-24T01:05:04;98741.38;;;16.07;71.79
65384;BME280;51986;52.788;41.368;2023-07-24T01:07:31;98749.38;;;16.16;71.21
65384;BME280;51986;52.788;41.368;2023-07-24T01:09:59;98751.41;;;16.03;71.80
65384;BME280;51986;52.788;41.368;2023-07-24T01:12:51;98757.66;;;16.18;71.33
65384;BME280;51986;52.788;41.368;2023-07-24T01:15:48;98759.31;;;16.25;71.56
65384;BME280;51986;52.788;41.368;2023-07-24T01:18:13;98745.84;;;16.19;71.10
65384;BME280;51986;52.788;41.368;2023-07-24T01:20:47;98741.13;;;16.24;70.57
65384;BME280;51986;52.788;41.368;2023-07-24T01:26:10;98738.03;;;16.43;70.20
65384;BME280;51986;52.788;41.368;2023-07-24T01:28:40;98743.22;;;16.29;70.18
65384;BME280;51986;52.788;41.368;2023-07-24T01:31:07;98743.03;;;16.41;70.38
65384;BME280;51986;52.788;41.368;2023-07-24T01:33:35;98748.22;;;16.36;70.25
65384;BME280;51986;52.788;41.368;2023-07-24T01:36:03;98757.84;;;16.42;70.14
65384;BME280;51986;52.788;41.368;2023-07-24T01:38:31;98732.72;;;16.43;70.08
65384;BME280;51986;52.788;41.368;2023-07-24T01:41:02;98750.59;;;16.61;69.82
65384;BME280;51986;52.788;41.368;2023-07-24T01:43:30;98743.94;;;16.57;69.60
65384;BME280;51986;52.788;41.368;2023-07-24T01:45:58;98741.28;;;16.57;69.60
65384;BME280;51986;52.788;41.368;2023-07-24T01:48:25;98762.13;;;16.67;69.45
65384;BME280;51986;52.788;41.368;2023-07-24T01:50:54;98764.78;;;16.77;69.79
65384;BME280;51986;52.788;41.368;2023-07-24T01:53:21;98762.84;;;16.86;69.31
65384;BME280;51986;52.788;41.368;2023-07-24T01:55:49;98776.31;;;16.92;68.70
65384;BME280;51986;52.788;41.368;2023-07-24T01:58:16;98724.63;;;16.99;68.80
65384;BME280;51986;52.788;41.368;2023-07-24T02:00:43;98751.44;;;17.04;68.71
65384;BME280;51986;52.788;41.368;2023-07-24T02:03:10;98758.50;;;17.07;69.25
65384;BME280;51986;52.788;41.368;2023-07-24T02:05:37;98752.09;;;17.23;68.01
65384;BME280;51986;52.788;41.368;2023-07-24T02:08:05;98751.56;;;17.19;68.60
65384;BME280;51986;52.788;41.368;2023-07-24T02:10:32;98754.50;;;17.12;68.33
65384;BME280;51986;52.788;41.368;2023-07-24T02:12:59;98738.03;;;17.23;67.29
65384;BME280;51986;52.788;41.368;2023-07-24T02:15:27;98773.28;;;17.17;68.15
65384;BME280;51986;52.788;41.368;2023-07-24T02:17:54;98780.97;;;17.34;67.49
65384;BME280;51986;52.788;41.368;2023-07-24T02:20:21;98770.44;;;17.39;67.22
65384;BME280;51986;52.788;41.368;2023-07-24T02:22:48;98756.97;;;17.34;67.19
65384;BME280;51986;52.788;41.368;2023-07-24T02:25:15;98775.25;;;17.59;67.11
65384;BME280;51986;52.788;41.368;2023-07-24T02:27:43;98784.75;;;17.51;66.55
65384;BME280;51986;52.788;41.368;2023-07-24T02:30:10;98770.19;;;17.61;66.25
65384;BME280;51986;52.788;41.368;2023-07-24T02:32:37;98768.44;;;17.58;66.59
65384;BME280;51986;52.788;41.368;2023-07-24T02:35:05;98765.78;;;17.58;66.54
65384;BME280;51986;52.788;41.368;2023-07-24T02:37:32;98782.16;;;17.66;66.88
65384;BME280;51986;52.788;41.368;2023-07-24T02:39:59;98778.31;;;17.67;66.83
65384;BME280;51986;52.788;41.368;2023-07-24T02:42:26;98776.63;;;17.79;66.39
65384;BME280;51986;52.788;41.368;2023-07-24T02:44:54;98783.16;;;17.78;65.91
65384;BME280;51986;52.788;41.368;2023-07-24T02:47:21;98752.97;;;17.71;66.63
65384;BME280;51986;52.788;41.368;2023-07-24T02:49:48;98788.16;;;17.85;66.31
65384;BME280;51986;52.788;41.368;2023-07-24T02:52:15;98789.38;;;17.75;67.44
65384;BME280;51986;52.788;41.368;2023-07-24T02:54:42;98801.38;;;18.12;65.79
65384;BME280;51986;52.788;41.368;2023-07-24T02:57:09;98794.44;;;18.30;64.38
65384;BME280;51986;52.788;41.368;2023-07-24T02:59:37;98788.75;;;18.13;65.56
65384;BME280;51986;52.788;41.368;2023-07-24T03:02:04;98784.09;;;18.22;65.33
65384;BME280;51986;52.788;41.368;2023-07-24T03:04:31;98760.66;;;19.24;61.93
65384;BME280;51986;52.788;41.368;2023-07-24T03:06:58;98769.38;;;19.90;59.54
65384;BME280;51986;52.788;41.368;2023-07-24T03:09:25;98780.97;;;20.94;56.40
65384;BME280;51986;52.788;41.368;2023-07-24T03:11:53;98763.19;;;21.60;54.10
65384;BME280;51986;52.788;41.368;2023-07-24T03:14:24;98769.63;;;22.39;51.65
65384;BME280;51986;52.788;41.368;2023-07-24T03:16:51;98763.41;;;23.04;49.92
65384;BME280;51986;52.788;41.368;2023-07-24T03:19:18;98778.06;;;24.17;47.07
65384;BME280;51986;52.788;41.368;2023-07-24T03:21:46;98769.78;;;24.98;45.09
65384;BME280;51986;52.788;41.368;2023-07-24T03:24:13;98762.50;;;25.42;43.42
65384;BME280;51986;52.788;41.368;2023-07-24T03:26:40;98756.78;;;25.75;42.43
65384;BME280;51986;52.788;41.368;2023-07-24T03:29:07;98763.28;;;26.29;41.62
65384;BME280;51986;52.788;41.368;2023-07-24T03:31:34;98749.91;;;26.87;39.96
65384;BME280;51986;52.788;41.368;2023-07-24T03:34:01;98764.13;;;27.20;39.22
65384;BME280;51986;52.788;41.368;2023-07-24T03:36:29;98770.91;;;27.80;38.67
65384;BME280;51986;52.788;41.368;2023-07-24T03:38:56;98737.91;;;28.15;37.54
65384;BME280;51986;52.788;41.368;2023-07-24T03:41:23;98779.69;;;28.68;36.49
65384;BME280;51986;52.788;41.368;2023-07-24T03:43:53;98740.25;;;29.16;35.83
65384;BME280;51986;52.788;41.368;2023-07-24T03:46:20;98754.91;;;29.70;34.37
65384;BME280;51986;52.788;41.368;2023-07-24T03:48:47;98771.88;;;29.63;34.73
65384;BME280;51986;52.788;41.368;2023-07-24T03:51:15;98738.19;;;29.30;34.81
65384;BME280;51986;52.788;41.368;2023-07-24T03:53:42;98757.38;;;29.89;34.13
65384;BME280;51986;52.788;41.368;2023-07-24T03:56:09;98827.91;;;29.95;33.48
65384;BME280;51986;52.788;41.368;2023-07-24T03:58:37;98759.50;;;29.47;34.38
65384;BME280;51986;52.788;41.368;2023-07-24T04:01:04;98729.69;;;29.62;34.39
65384;BME280;51986;52.788;41.368;2023-07-24T04:03:31;98766.22;;;30.33;33.24
65384;BME280;51986;52.788;41.368;2023-07-24T04:05:59;98839.53;;;30.47;33.92
65384;BME280;51986;52.788;41.368;2023-07-24T04:08:26;98771.88;;;29.91;33.77
65384;BME280;51986;52.788;41.368;2023-07-24T04:10:53;98745.00;;;29.88;33.88
65384;BME280;51986;52.788;41.368;2023-07-24T04:13:20;98758.94;;;29.77;33.80
65384;BME280;51986;52.788;41.368;2023-07-24T04:15:47;98743.13;;;29.39;34.59
65384;BME280;51986;52.788;41.368;2023-07-24T04:18:14;98755.41;;;28.83;35.74
65384;BME280;51986;52.788;41.368;2023-07-24T04:20:41;98757.00;;;28.78;36.16
65384;BME280;51986;52.788;41.368;2023-07-24T04:23:09;98751.06;;;28.46;36.47
65384;BME280;51986;52.788;41.368;2023-07-24T04:25:36;98771.66;;;28.07;37.24
65384;BME280;51986;52.788;41.368;2023-07-24T04:28:03;98746.53;;;28.06;37.67
65384;BME280;51986;52.788;41.368;2023-07-24T04:30:30;98780.81;;;27.90;37.47
65384;BME280;51986;52.788;41.368;2023-07-24T04:32:57;98746.66;;;27.61;38.41
65384;BME280;51986;52.788;41.368;2023-07-24T04:35:26;98774.56;;;27.56;38.37
65384;BME280;51986;52.788;41.368;2023-07-24T04:37:53;98779.38;;;27.63;37.95
65384;BME280;51986;52.788;41.368;2023-07-24T04:40:21;98768.84;;;27.73;38.01
65384;BME280;51986;52.788;41.368;2023-07-24T04:42:48;98791.75;;;28.11;37.58
65384;BME280;51986;52.788;41.368;2023-07-24T04:45:15;98792.38;;;28.18;38.16
65384;BME280;51986;52.788;41.368;2023-07-24T04:47:42;98774.88;;;28.39;36.98
65384;BME280;51986;52.788;41.368;2023-07-24T04:50:09;98764.22;;;28.21;36.42
65384;BME280;51986;52.788;41.368;2023-07-24T04:52:36;98776.75;;;27.97;37.32
65384;BME280;51986;52.788;41.368;2023-07-24T04:55:04;98774.34;;;28.07;37.24
65384;BME280;51986;52.788;41.368;2023-07-24T04:57:31;98775.28;;;28.09;37.45
65384;BME280;51986;52.788;41.368;2023-07-24T04:59:58;98797.22;;;28.32;36.92
65384;BME280;51986;52.788;41.368;2023-07-24T05:02:25;98775.09;;;28.42;37.51
65384;BME280;51986;52.788;41.368;2023-07-24T05:04:52;98775.97;;;28.23;36.39
65384;BME280;51986;52.788;41.368;2023-07-24T05:07:20;98775.56;;;28.19;36.78
65384;BME280;51986;52.788;41.368;2023-07-24T05:09:47;98788.41;;;28.05;35.45
65384;BME280;51986;52.788;41.368;2023-07-24T05:12:14;98771.44;;;27.78;36.04
65384;BME280;51986;52.788;41.368;2023-07-24T05:14:41;98764.88;;;27.87;36.62
65384;BME280;51986;52.788;41.368;2023-07-24T05:17:08;98796.53;;;28.19;36.13
65384;BME280;51986;52.788;41.368;2023-07-24T05:19:35;98793.50;;;27.96;37.37
65384;BME280;51986;52.788;41.368;2023-07-24T05:22:02;98775.78;;;27.28;35.90
65384;BME280;51986;52.788;41.368;2023-07-24T05:24:29;98825.19;;;27.48;36.48
65384;BME280;51986;52.788;41.368;2023-07-24T05:26:57;98775.53;;;27.00;38.72
65384;BME280;51986;52.788;41.368;2023-07-24T05:29:24;98776.28;;;26.81;38.89
65384;BME280;51986;52.788;41.368;2023-07-24T05:31:51;98803.88;;;27.12;38.35
65384;BME280;51986;52.788;41.368;2023-07-24T05:34:18;98793.56;;;27.24;38.51
65384;BME280;51986;52.788;41.368;2023-07-24T05:36:45;98796.00;;;26.63;38.52
65384;BME280;51986;52.788;41.368;2023-07-24T05:39:12;98805.63;;;26.77;38.19
65384;BME280;51986;52.788;41.368;2023-07-24T05:41:39;98793.31;;;26.76;37.49
65384;BME280;51986;52.788;41.368;2023-07-24T05:44:06;98779.28;;;26.97;37.14
65384;BME280;51986;52.788;41.368;2023-07-24T05:46:33;98776.19;;;27.06;37.36
65384;BME280;51986;52.788;41.368;2023-07-24T05:49:00;98797.88;;;26.87;38.20
65384;BME280;51986;52.788;41.368;2023-07-24T05:51:28;98788.75;;;26.15;39.40
65384;BME280;51986;52.788;41.368;2023-07-24T05:53:55;98770.63;;;26.47;38.09
65384;BME280;51986;52.788;41.368;2023-07-24T05:56:22;98792.50;;;26.81;38.34
65384;BME280;51986;52.788;41.368;2023-07-24T05:58:49;98818.28;;;26.69;38.23
65384;BME280;51986;52.788;41.368;2023-07-24T06:01:16;98803.88;;;26.42;37.21
65384;BME280;51986;52.788;41.368;2023-07-24T06:03:43;98766.34;;;26.39;38.60
65384;BME280;51986;52.788;41.368;2023-07-24T06:06:11;98770.25;;;26.56;38.50
65384;BME280;51986;52.788;41.368;2023-07-24T06:08:38;98789.66;;;26.93;39.53
65384;BME280;51986;52.788;41.368;2023-07-24T06:11:05;98799.72;;;27.11;38.55
65384;BME280;51986;52.788;41.368;2023-07-24T06:13:32;98794.19;;;27.49;37.88
65384;BME280;51986;52.788;41.368;2023-07-24T06:15:59;98784.97;;;27.25;37.40
65384;BME280;51986;52.788;41.368;2023-07-24T06:18:26;98764.44;;;27.43;36.65
65384;BME280;51986;52.788;41.368;2023-07-24T06:20:54;98804.50;;;26.86;37.44
65384;BME280;51986;52.788;41.368;2023-07-24T06:23:21;98775.69;;;26.37;38.72
65384;BME280;51986;52.788;41.368;2023-07-24T06:25:48;98800.97;;;26.59;38.27
65384;BME280;51986;52.788;41.368;2023-07-24T06:28:15;98777.47;;;26.86;38.23
65384;BME280;51986;52.788;41.368;2023-07-24T06:30:42;98793.97;;;27.01;37.43
65384;BME280;51986;52.788;41.368;2023-07-24T06:33:09;98783.47;;;27.24;37.46
65384;BME280;51986;52.788;41.368;2023-07-24T06:35:36;98787.47;;;27.36;38.00
65384;BME280;51986;52.788;41.368;2023-07-24T06:38:03;98784.38;;;27.46;37.29
65384;BME280;51986;52.788;41.368;2023-07-24T06:40:30;98810.00;;;26.80;38.01
65384;BME280;51986;52.788;41.368;2023-07-24T06:42:58;98790.81;;;26.27;38.66
65384;BME280;51986;52.788;41.368;2023-07-24T06:45:25;98788.09;;;26.65;37.75
65384;BME280;51986;52.788;41.368;2023-07-24T06:47:52;98780.47;;;27.28;38.12
65384;BME280;51986;52.788;41.368;2023-07-24T06:50:19;98794.06;;;27.54;36.58
65384;BME280;51986;52.788;41.368;2023-07-24T06:52:46;98782.28;;;27.78;37.03
65384;BME280;51986;52.788;41.368;2023-07-24T06:55:13;98777.06;;;27.80;36.64
65384;BME280;51986;52.788;41.368;2023-07-24T06:57:40;98783.63;;;28.11;35.85
65384;BME280;51986;52.788;41.368;2023-07-24T07:00:07;98770.88;;;28.20;34.85
65384;BME280;51986;52.788;41.368;2023-07-24T07:02:35;98779.56;;;27.52;35.92
65384;BME280;51986;52.788;41.368;2023-07-24T07:05:02;98792.16;;;27.36;35.70
65384;BME280;51986;52.788;41.368;2023-07-24T07:07:29;98789.47;;;27.89;36.34
65384;BME280;51986;52.788;41.368;2023-07-24T07:09:56;98799.75;;;28.04;35.51
65384;BME280;51986;52.788;41.368;2023-07-24T07:12:23;98788.66;;;27.54;36.07
65384;BME280;51986;52.788;41.368;2023-07-24T07:14:50;98789.88;;;27.67;34.99
65384;BME280;51986;52.788;41.368;2023-07-24T07:17:17;98793.00;;;27.97;34.59
65384;BME280;51986;52.788;41.368;2023-07-24T07:19:44;98783.31;;;28.02;34.76
65384;BME280;51986;52.788;41.368;2023-07-24T07:22:11;98762.06;;;27.53;34.49
65384;BME280;51986;52.788;41.368;2023-07-24T07:24:38;98762.66;;;27.85;34.48
65384;BME280;51986;52.788;41.368;2023-07-24T07:27:05;98759.34;;;27.66;33.85
65384;BME280;51986;52.788;41.368;2023-07-24T07:29:32;98750.59;;;28.34;34.12
65384;BME280;51986;52.788;41.368;2023-07-24T07:32:00;98752.06;;;27.74;34.20
65384;BME280;51986;52.788;41.368;2023-07-24T07:34:27;98755.72;;;27.63;34.53
65384;BME280;51986;52.788;41.368;2023-07-24T07:36:54;98775.16;;;27.22;34.46
65384;BME280;51986;52.788;41.368;2023-07-24T07:39:21;98780.09;;;27.50;33.76
65384;BME280;51986;52.788;41.368;2023-07-24T07:41:48;98779.69;;;27.73;33.67
65384;BME280;51986;52.788;41.368;2023-07-24T07:44:16;98762.03;;;28.06;33.84
65384;BME280;51986;52.788;41.368;2023-07-24T07:46:43;98768.53;;;28.58;33.29
65384;BME280;51986;52.788;41.368;2023-07-24T07:49:10;98796.69;;;27.73;33.64
65384;BME280;51986;52.788;41.368;2023-07-24T07:51:37;98780.13;;;27.18;35.78
65384;BME280;51986;52.788;41.368;2023-07-24T07:54:04;98752.16;;;27.16;34.90
65384;BME280;51986;52.788;41.368;2023-07-24T07:56:31;98781.53;;;27.25;34.46
65384;BME280;51986;52.788;41.368;2023-07-24T07:58:58;98787.16;;;27.53;34.83
65384;BME280;51986;52.788;41.368;2023-07-24T08:01:25;98774.56;;;27.56;34.68
65384;BME280;51986;52.788;41.368;2023-07-24T08:03:52;98792.50;;;27.59;34.79
65384;BME280;51986;52.788;41.368;2023-07-24T08:06:19;98778.94;;;27.00;34.51
65384;BME280;51986;52.788;41.368;2023-07-24T08:08:47;98779.63;;;26.36;34.53
65384;BME280;51986;52.788;41.368;2023-07-24T08:11:14;98785.63;;;26.48;35.00
65384;BME280;51986;52.788;41.368;2023-07-24T08:13:41;98790.72;;;26.71;34.43
65384;BME280;51986;52.788;41.368;2023-07-24T08:16:14;98802.25;;;26.71;34.95
65384;BME280;51986;52.788;41.368;2023-07-24T08:18:41;98783.88;;;27.02;35.99
65384;BME280;51986;52.788;41.368;2023-07-24T08:21:08;98793.00;;;27.44;34.14
65384;BME280;51986;52.788;41.368;2023-07-24T08:23:36;98750.50;;;27.52;34.26
65384;BME280;51986;52.788;41.368;2023-07-24T08:26:03;98789.13;;;27.26;34.73
65384;BME280;51986;52.788;41.368;2023-07-24T08:28:30;98774.13;;;26.61;33.90
65384;BME280;51986;52.788;41.368;2023-07-24T08:30:58;98781.31;;;26.40;33.32
65384;BME280;51986;52.788;41.368;2023-07-24T08:33:28;98771.00;;;26.00;34.19
65384;BME280;51986;52.788;41.368;2023-07-24T08:38:30;98776.63;;;26.02;35.73
65384;BME280;51986;52.788;41.368;2023-07-24T08:41:04;98747.41;;;26.71;36.00
65384;BME280;51986;52.788;41.368;2023-07-24T08:43:33;98783.63;;;26.86;33.23
65384;BME280;51986;52.788;41.368;2023-07-24T08:46:01;98781.75;;;26.44;32.47
65384;BME280;51986;52.788;41.368;2023-07-24T08:48:36;98773.19;;;26.58;32.20
65384;BME280;51986;52.788;41.368;2023-07-24T08:51:09;98769.53;;;26.56;32.14
65384;BME280;51986;52.788;41.368;2023-07-24T08:53:38;98757.00;;;27.04;32.22
65384;BME280;51986;52.788;41.368;2023-07-24T08:56:07;98771.72;;;27.22;31.80
65384;BME280;51986;52.788;41.368;2023-07-24T08:58:35;98747.13;;;27.20;32.55
65384;BME280;51986;52.788;41.368;2023-07-24T09:01:03;98764.50;;;26.98;33.00
65384;BME280;51986;52.788;41.368;2023-07-24T09:03:32;98772.31;;;27.14;32.85
65384;BME280;51986;52.788;41.368;2023-07-24T09:06:02;98789.09;;;27.13;31.07
65384;BME280;51986;52.788;41.368;2023-07-24T09:08:30;98754.19;;;27.09;30.62
65384;BME280;51986;52.788;41.368;2023-07-24T09:10:58;98729.88;;;27.62;30.46
65384;BME280;51986;52.788;41.368;2023-07-24T09:13:26;98749.25;;;27.67;30.86
65384;BME280;51986;52.788;41.368;2023-07-24T09:15:53;98757.06;;;27.57;30.22
65384;BME280;51986;52.788;41.368;2023-07-24T09:18:21;98760.38;;;27.23;30.61
65384;BME280;51986;52.788;41.368;2023-07-24T09:20:49;98763.81;;;27.77;30.48
65384;BME280;51986;52.788;41.368;2023-07-24T09:23:26;98766.09;;;27.86;31.20
65384;BME280;51986;52.788;41.368;2023-07-24T09:25:53;98760.03;;;27.13;31.72
65384;BME280;51986;52.788;41.368;2023-07-24T09:28:21;98759.97;;;27.32;30.78
65384;BME280;51986;52.788;41.368;2023-07-24T09:30:53;98757.06;;;27.57;30.97
65384;BME280;51986;52.788;41.368;2023-07-24T09:33:22;98753.75;;;27.51;30.29
65384;BME280;51986;52.788;41.368;2023-07-24T09:35:57;98747.22;;;27.01;31.76
65384;BME280;51986;52.788;41.368;2023-07-24T09:38:25;98764.38;;;26.71;32.79
65384;BME280;51986;52.788;41.368;2023-07-24T09:40:53;98747.31;;;26.63;33.23
65384;BME280;51986;52.788;41.368;2023-07-24T09:46:05;98750.25;;;27.90;31.70
65384;BME280;51986;52.788;41.368;2023-07-24T09:48:32;98746.38;;;26.93;32.30
65384;BME280;51986;52.788;41.368;2023-07-24T09:51:03;98743.78;;;26.68;32.19
65384;BME280;51986;52.788;41.368;2023-07-24T09:53:39;98768.25;;;27.08;31.96
65384;BME280;51986;52.788;41.368;2023-07-24T09:56:10;98750.75;;;27.09;31.36
65384;BME280;51986;52.788;41.368;2023-07-24T09:58:39;98742.16;;;27.77;30.59
65384;BME280;51986;52.788;41.368;2023-07-24T10:01:09;98749.91;;;28.20;30.94
65384;BME280;51986;52.788;41.368;2023-07-24T10:03:46;98715.13;;;27.98;29.99
65384;BME280;51986;52.788;41.368;2023-07-24T10:06:15;98714.53;;;27.78;30.16
65384;BME280;51986;52.788;41.368;2023-07-24T10:08:43;98744.22;;;27.84;30.92
65384;BME280;51986;52.788;41.368;2023-07-24T10:11:12;98728.97;;;28.21;30.27
65384;BME280;51986;52.788;41.368;2023-07-24T10:13:42;98738.22;;;27.78;31.08
65384;BME280;51986;52.788;41.368;2023-07-24T10:16:10;98747.06;;;27.52;31.45
65384;BME280;51986;52.788;41.368;2023-07-24T10:18:44;98736.22;;;27.52;30.59
65384;BME280;51986;52.788;41.368;2023-07-24T10:21:13;98764.22;;;26.82;32.38
65384;BME280;51986;52.788;41.368;2023-07-24T10:23:43;98744.72;;;27.03;31.59
65384;BME280;51986;52.788;41.368;2023-07-24T10:26:10;98745.81;;;27.39;31.08
65384;BME280;51986;52.788;41.368;2023-07-24T10:28:40;98729.63;;;27.07;31.98
65384;BME280;51986;52.788;41.368;2023-07-24T10:31:23;98725.25;;;27.04;31.52
65384;BME280;51986;52.788;41.368;2023-07-24T10:33:52;98754.59;;;26.87;31.89
65384;BME280;51986;52.788;41.368;2023-07-24T10:36:21;98720.88;;;27.01;30.40
65384;BME280;51986;52.788;41.368;2023-07-24T10:38:54;98749.81;;;26.93;31.85
65384;BME280;51986;52.788;41.368;2023-07-24T10:41:34;98728.06;;;26.99;31.06
65384;BME280;51986;52.788;41.368;2023-07-24T10:44:02;98735.56;;;26.74;30.18
65384;BME280;51986;52.788;41.368;2023-07-24T10:46:40;98721.03;;;26.45;29.64
65384;BME280;51986;52.788;41.368;2023-07-24T10:49:08;98731.19;;;27.03;29.90
65384;BME280;51986;52.788;41.368;2023-07-24T10:51:35;98713.47;;;26.88;30.44
65384;BME280;51986;52.788;41.368;2023-07-24T10:54:03;98733.22;;;26.83;31.53
65384;BME280;51986;52.788;41.368;2023-07-24T10:56:30;98720.78;;;26.75;31.12
65384;BME280;51986;52.788;41.368;2023-07-24T10:59:04;98738.31;;;26.55;31.16
65384;BME280;51986;52.788;41.368;2023-07-24T11:01:32;98729.53;;;26.81;31.14
65384;BME280;51986;52.788;41.368;2023-07-24T11:04:02;98722.16;;;26.68;31.37
65384;BME280;51986;52.788;41.368;2023-07-24T11:06:29;98736.25;;;26.61;31.44
65384;BME280;51986;52.788;41.368;2023-07-24T11:08:57;98710.25;;;26.58;31.47
65384;BME280;51986;52.788;41.368;2023-07-24T11:11:35;98709.53;;;27.03;31.37
65384;BME280;51986;52.788;41.368;2023-07-24T11:14:03;98735.06;;;27.07;31.30
65384;BME280;51986;52.788;41.368;2023-07-24T11:16:31;98724.97;;;27.74;31.37
65384;BME280;51986;52.788;41.368;2023-07-24T11:18:58;98720.22;;;27.54;30.50
65384;BME280;51986;52.788;41.368;2023-07-24T11:21:25;98712.03;;;27.80;30.41
65384;BME280;51986;52.788;41.368;2023-07-24T11:23:55;98705.75;;;27.85;29.72
65384;BME280;51986;52.788;41.368;2023-07-24T11:26:24;98716.91;;;27.82;30.27
65384;BME280;51986;52.788;41.368;2023-07-24T11:28:52;98698.88;;;27.98;30.25
65384;BME280;51986;52.788;41.368;2023-07-24T11:31:20;98713.47;;;28.29;29.96
65384;BME280;51986;52.788;41.368;2023-07-24T11:33:49;98712.34;;;28.24;29.57
65384;BME280;51986;52.788;41.368;2023-07-24T11:36:16;98705.53;;;27.97;29.04
65384;BME280;51986;52.788;41.368;2023-07-24T11:38:47;98696.47;;;28.28;28.28
65384;BME280;51986;52.788;41.368;2023-07-24T11:41:16;98704.34;;;28.19;29.10
65384;BME280;51986;52.788;41.368;2023-07-24T11:43:49;98714.78;;;28.14;28.03
65384;BME280;51986;52.788;41.368;2023-07-24T11:46:27;98696.94;;;28.19;27.98
65384;BME280;51986;52.788;41.368;2023-07-24T11:48:55;98677.53;;;27.68;28.37
65384;BME280;51986;52.788;41.368;2023-07-24T11:51:23;98693.13;;;27.54;28.84
65384;BME280;51986;52.788;41.368;2023-07-24T11:53:50;98685.66;;;27.81;28.62
65384;BME280;51986;52.788;41.368;2023-07-24T11:56:19;98711.00;;;27.70;29.08
65384;BME280;51986;52.788;41.368;2023-07-24T11:58:46;98710.81;;;28.15;29.28
65384;BME280;51986;52.788;41.368;2023-07-24T12:01:13;98725.25;;;28.31;28.76
65384;BME280;51986;52.788;41.368;2023-07-24T12:03:42;98692.31;;;28.48;28.25
65384;BME280;51986;52.788;41.368;2023-07-24T12:06:16;98705.47;;;28.44;27.84
65384;BME280;51986;52.788;41.368;2023-07-24T12:08:43;98674.69;;;28.62;27.12
65384;BME280;51986;52.788;41.368;2023-07-24T12:11:17;98668.25;;;28.65;27.92
65384;BME280;51986;52.788;41.368;2023-07-24T12:13:44;98668.84;;;28.51;27.75
65384;BME280;51986;52.788;41.368;2023-07-24T12:16:11;98688.47;;;28.44;27.94
65384;BME280;51986;52.788;41.368;2023-07-24T12:18:39;98680.41;;;28.30;27.62
65384;BME280;51986;52.788;41.368;2023-07-24T12:21:06;98679.94;;;28.60;26.92
65384;BME280;51986;52.788;41.368;2023-07-24T12:23:33;98677.97;;;28.40;28.17
65384;BME280;51986;52.788;41.368;2023-07-24T12:26:00;98666.06;;;28.22;28.72
65384;BME280;51986;52.788;41.368;2023-07-24T12:28:28;98678.22;;;28.08;29.09
65384;BME280;51986;52.788;41.368;2023-07-24T12:30:55;98682.16;;;27.59;29.65
65384;BME280;51986;52.788;41.368;2023-07-24T12:33:22;98674.06;;;27.46;29.86
65384;BME280;51986;52.788;41.368;2023-07-24T12:35:50;98676.75;;;26.93;29.53
65384;BME280;51986;52.788;41.368;2023-07-24T12:38:18;98675.19;;;27.24;29.33
65384;BME280;51986;52.788;41.368;2023-07-24T12:40:45;98670.19;;;27.02;30.48
65384;BME280;51986;52.788;41.368;2023-07-24T12:43:14;98687.38;;;27.31;30.18
65384;BME280;51986;52.788;41.368;2023-07-24T12:45:41;98672.56;;;27.32;29.99
65384;BME280;51986;52.788;41.368;2023-07-24T12:48:09;98687.56;;;27.20;29.76
65384;BME280;51986;52.788;41.368;2023-07-24T12:50:36;98676.84;;;27.01;30.12
65384;BME280;51986;52.788;41.368;2023-07-24T12:53:03;98669.38;;;27.20;30.25
65384;BME280;51986;52.788;41.368;2023-07-24T12:55:36;98684.56;;;27.36;29.83
65384;BME280;51986;52.788;41.368;2023-07-24T12:58:03;98663.41;;;26.95;29.81
65384;BME280;51986;52.788;41.368;2023-07-24T13:00:30;98680.28;;;27.14;30.36
65384;BME280;51986;52.788;41.368;2023-07-24T13:02:57;98681.56;;;26.81;30.01